sensor_id;sensor_type;location;lat;lon;timestamp;pressure;altitude;pressure_sealevel;temperature;humidity
55679;BME280;41573;51.446;-2.018;2023-05-25T00:01:21;101344.88;;;12.36;100.00
55679;BME280;41573;51.446;-2.018;2023-05-25T00:03:48;101343.31;;;12.32;100.00
55679;BME280;41573;51.446;-2.018;2023-05-25T00:06:16;101344.34;;;12.29;100.00
55679;BME280;41573;51.446;-2.018;2023-05-25T00:08:42;101351.69;;;12.26;100.00
55679;BME280;41573;51.446;-2.018;2023-05-25T00:11:08;101345.41;;;12.27;100.00
55679;BME280;41573;51.446;-2.018;2023-05-25T00:13:33;101338.41;;;12.24;100.00
55679;BME280;41573;51.446;-2.018;2023-05-25T00:15:59;101344.78;;;12.21;100.00
55679;BME280;41573;51.446;-2.018;2023-05-25T00:18:24;101343.13;;;12.19;100.00
55679;BME280;41573;51.446;-2.018;2023-05-25T00:20:51;101350.47;;;12.15;100.00
55679;BME280;41573;51.446;-2.018;2023-05-25T00:23:18;101353.38;;;12.11;100.00
55679;BME280;41573;51.446;-2.018;2023-05-25T00:25:44;101353.44;;;12.09;100.00
55679;BME280;41573;51.446;-2.018;2023-05-25T00:28:10;101352.69;;;12.07;100.00
55679;BME280;41573;51.446;-2.018;2023-05-25T00:30:36;101350.25;;;12.02;100.00
55679;BME280;41573;51.446;-2.018;2023-05-25T00:33:01;101347.81;;;11.98;100.00
55679;BME280;41573;51.446;-2.018;2023-05-25T00:35:27;101351.66;;;11.92;100.00
55679;BME280;41573;51.446;-2.018;2023-05-25T00:37:52;101342.97;;;11.88;100.00
55679;BME280;41573;51.446;-2.018;2023-05-25T00:40:18;101349.31;;;11.86;100.00
55679;BME280;41573;51.446;-2.018;2023-05-25T00:42:44;101346.91;;;11.81;100.00
55679;BME280;41573;51.446;-2.018;2023-05-25T00:45:10;101338.09;;;11.79;100.00
55679;BME280;41573;51.446;-2.018;2023-05-25T00:47:36;101340.00;;;11.77;100.00
55679;BME280;41573;51.446;-2.018;2023-05-25T00:50:07;101346.91;;;11.81;100.00
55679;BME280;41573;51.446;-2.018;2023-05-25T00:52:33;101350.53;;;11.80;100.00
55679;BME280;41573;51.446;-2.018;2023-05-25T00:54:59;101344.47;;;11.77;100.00
55679;BME280;41573;51.446;-2.018;2023-05-25T00:57:27;101350.31;;;11.67;100.00
55679;BME280;41573;51.446;-2.018;2023-05-25T00:59:56;101358.41;;;11.66;100.00
55679;BME280;41573;51.446;-2.018;2023-05-25T01:02:23;101351.31;;;11.65;100.00
55679;BME280;41573;51.446;-2.018;2023-05-25T01:04:52;101350.56;;;11.63;100.00
55679;BME280;41573;51.446;-2.018;2023-05-25T01:07:22;101356.03;;;11.60;100.00
55679;BME280;41573;51.446;-2.018;2023-05-25T01:09:55;101347.25;;;11.58;100.00
55679;BME280;41573;51.446;-2.018;2023-05-25T01:12:21;101353.53;;;11.56;100.00
55679;BME280;41573;51.446;-2.018;2023-05-25T01:14:48;101351.75;;;11.57;100.00
55679;BME280;41573;51.446;-2.018;2023-05-25T01:17:14;101345.69;;;11.53;100.00
55679;BME280;41573;51.446;-2.018;2023-05-25T01:19:40;101330.78;;;11.49;100.00
55679;BME280;41573;51.446;-2.018;2023-05-25T01:22:13;101338.63;;;11.52;100.00
55679;BME280;41573;51.446;-2.018;2023-05-25T01:24:45;101341.63;;;11.46;100.00
55679;BME280;41573;51.446;-2.018;2023-05-25T01:29:45;101343.03;;;11.36;100.00
55679;BME280;41573;51.446;-2.018;2023-05-25T01:32:12;101360.13;;;11.32;100.00
55679;BME280;41573;51.446;-2.018;2023-05-25T01:34:40;101366.97;;;11.20;100.00
55679;BME280;41573;51.446;-2.018;2023-05-25T01:37:07;101364.66;;;11.12;100.00
55679;BME280;41573;51.446;-2.018;2023-05-25T01:39:33;101359.41;;;11.11;100.00
55679;BME280;41573;51.446;-2.018;2023-05-25T01:41:59;101361.34;;;11.07;100.00
55679;BME280;41573;51.446;-2.018;2023-05-25T01:44:27;101363.41;;;11.02;100.00
55679;BME280;41573;51.446;-2.018;2023-05-25T01:47:01;101353.53;;;11.04;100.00
55679;BME280;41573;51.446;-2.018;2023-05-25T01:49:40;101358.22;;;10.99;100.00
55679;BME280;41573;51.446;-2.018;2023-05-25T01:52:17;101359.94;;;11.00;100.00
55679;BME280;41573;51.446;-2.018;2023-05-25T01:55:10;101355.66;;;10.97;100.00
55679;BME280;41573;51.446;-2.018;2023-05-25T01:57:42;101358.94;;;11.02;100.00
55679;BME280;41573;51.446;-2.018;2023-05-25T02:00:11;101361.66;;;11.01;100.00
55679;BME280;41573;51.446;-2.018;2023-05-25T02:02:37;101364.50;;;10.98;100.00
55679;BME280;41573;51.446;-2.018;2023-05-25T02:05:05;101364.56;;;10.96;100.00
55679;BME280;41573;51.446;-2.018;2023-05-25T02:07:33;101372.47;;;10.80;100.00
55679;BME280;41573;51.446;-2.018;2023-05-25T02:09:58;101379.03;;;10.73;100.00
55679;BME280;41573;51.446;-2.018;2023-05-25T02:12:24;101384.19;;;10.57;100.00
55679;BME280;41573;51.446;-2.018;2023-05-25T02:14:50;101375.84;;;10.46;100.00
55679;BME280;41573;51.446;-2.018;2023-05-25T02:17:15;101377.88;;;10.41;100.00
55679;BME280;41573;51.446;-2.018;2023-05-25T02:19:43;101361.03;;;10.40;100.00
55679;BME280;41573;51.446;-2.018;2023-05-25T02:22:09;101347.53;;;10.45;100.00
55679;BME280;41573;51.446;-2.018;2023-05-25T02:24:34;101346.22;;;10.54;100.00
55679;BME280;41573;51.446;-2.018;2023-05-25T02:27:05;101346.63;;;10.63;100.00
55679;BME280;41573;51.446;-2.018;2023-05-25T02:29:31;101329.34;;;10.72;100.00
55679;BME280;41573;51.446;-2.018;2023-05-25T02:31:57;101329.03;;;10.78;100.00
55679;BME280;41573;51.446;-2.018;2023-05-25T02:34:23;101323.41;;;10.84;100.00
55679;BME280;41573;51.446;-2.018;2023-05-25T02:36:49;101330.16;;;10.92;100.00
55679;BME280;41573;51.446;-2.018;2023-05-25T02:39:16;101332.81;;;10.92;100.00
55679;BME280;41573;51.446;-2.018;2023-05-25T02:41:41;101334.44;;;10.94;100.00
55679;BME280;41573;51.446;-2.018;2023-05-25T02:44:07;101333.53;;;10.95;100.00
55679;BME280;41573;51.446;-2.018;2023-05-25T02:46:34;101338.94;;;10.94;100.00
55679;BME280;41573;51.446;-2.018;2023-05-25T02:49:00;101341.75;;;10.91;100.00
55679;BME280;41573;51.446;-2.018;2023-05-25T02:51:27;101348.81;;;10.92;100.00
55679;BME280;41573;51.446;-2.018;2023-05-25T02:53:53;101348.94;;;10.89;100.00
55679;BME280;41573;51.446;-2.018;2023-05-25T02:56:19;101344.66;;;10.86;100.00
55679;BME280;41573;51.446;-2.018;2023-05-25T02:58:45;101345.44;;;10.88;100.00
55679;BME280;41573;51.446;-2.018;2023-05-25T03:01:11;101344.50;;;10.89;100.00
55679;BME280;41573;51.446;-2.018;2023-05-25T03:03:44;101334.75;;;10.88;100.00
55679;BME280;41573;51.446;-2.018;2023-05-25T03:06:11;101332.94;;;10.89;100.00
55679;BME280;41573;51.446;-2.018;2023-05-25T03:08:38;101340.25;;;10.85;100.00
55679;BME280;41573;51.446;-2.018;2023-05-25T03:11:04;101333.75;;;10.73;100.00
55679;BME280;41573;51.446;-2.018;2023-05-25T03:13:29;101338.41;;;10.68;100.00
55679;BME280;41573;51.446;-2.018;2023-05-25T03:15:55;101332.44;;;10.63;100.00
55679;BME280;41573;51.446;-2.018;2023-05-25T03:18:21;101327.09;;;10.63;100.00
55679;BME280;41573;51.446;-2.018;2023-05-25T03:20:48;101329.41;;;10.71;100.00
55679;BME280;41573;51.446;-2.018;2023-05-25T03:23:13;101324.94;;;10.71;100.00
55679;BME280;41573;51.446;-2.018;2023-05-25T03:25:40;101320.53;;;10.70;100.00
55679;BME280;41573;51.446;-2.018;2023-05-25T03:28:09;101315.94;;;10.74;100.00
55679;BME280;41573;51.446;-2.018;2023-05-25T03:30:36;101313.19;;;10.75;100.00
55679;BME280;41573;51.446;-2.018;2023-05-25T03:33:01;101306.94;;;10.76;100.00
55679;BME280;41573;51.446;-2.018;2023-05-25T03:35:27;101294.38;;;10.78;100.00
55679;BME280;41573;51.446;-2.018;2023-05-25T03:37:52;101305.84;;;10.80;100.00
55679;BME280;41573;51.446;-2.018;2023-05-25T03:40:19;101289.06;;;10.78;100.00
55679;BME280;41573;51.446;-2.018;2023-05-25T03:42:44;101283.97;;;10.74;100.00
55679;BME280;41573;51.446;-2.018;2023-05-25T03:45:10;101281.22;;;10.75;100.00
55679;BME280;41573;51.446;-2.018;2023-05-25T03:47:36;101275.81;;;10.77;100.00
55679;BME280;41573;51.446;-2.018;2023-05-25T03:53:26;101284.81;;;10.74;100.00
55679;BME280;41573;51.446;-2.018;2023-05-25T03:55:52;101278.56;;;10.75;100.00
55679;BME280;41573;51.446;-2.018;2023-05-25T04:01:41;101276.13;;;10.71;100.00
55679;BME280;41573;51.446;-2.018;2023-05-25T04:04:07;101271.81;;;10.68;100.00
55679;BME280;41573;51.446;-2.018;2023-05-25T04:06:33;101261.94;;;10.70;100.00
55679;BME280;41573;51.446;-2.018;2023-05-25T06:48:08;101324.72;;;13.39;100.00
55679;BME280;41573;51.446;-2.018;2023-05-25T06:50:34;101323.22;;;13.49;100.00
55679;BME280;41573;51.446;-2.018;2023-05-25T07:00:39;101331.38;;;13.76;100.00
55679;BME280;41573;51.446;-2.018;2023-05-25T07:09:47;101335.38;;;13.98;100.00
55679;BME280;41573;51.446;-2.018;2023-05-25T07:12:14;101356.44;;;14.04;100.00
55679;BME280;41573;51.446;-2.018;2023-05-25T07:14:43;101362.25;;;14.11;100.00
55679;BME280;41573;51.446;-2.018;2023-05-25T07:17:13;101370.66;;;14.19;100.00
55679;BME280;41573;51.446;-2.018;2023-05-25T07:19:45;101371.91;;;14.28;100.00
55679;BME280;41573;51.446;-2.018;2023-05-25T07:22:11;101380.22;;;14.38;100.00
55679;BME280;41573;51.446;-2.018;2023-05-25T07:24:37;101392.66;;;14.53;100.00
55679;BME280;41573;51.446;-2.018;2023-05-25T07:27:02;101416.78;;;14.53;100.00
55679;BME280;41573;51.446;-2.018;2023-05-25T07:29:28;101411.81;;;14.47;100.00
55679;BME280;41573;51.446;-2.018;2023-05-25T07:31:53;101418.34;;;14.28;100.00
55679;BME280;41573;51.446;-2.018;2023-05-25T07:34:19;101425.38;;;14.15;100.00
55679;BME280;41573;51.446;-2.018;2023-05-25T07:36:44;101423.47;;;14.03;100.00
55679;BME280;41573;51.446;-2.018;2023-05-25T07:39:13;101413.53;;;13.90;100.00
55679;BME280;41573;51.446;-2.018;2023-05-25T07:41:43;101409.50;;;13.83;100.00
55679;BME280;41573;51.446;-2.018;2023-05-25T07:44:08;101408.91;;;13.78;100.00
55679;BME280;41573;51.446;-2.018;2023-05-25T07:46:34;101408.06;;;13.77;100.00
55679;BME280;41573;51.446;-2.018;2023-05-25T07:49:00;101394.16;;;13.71;100.00
55679;BME280;41573;51.446;-2.018;2023-05-25T07:51:28;101394.66;;;13.77;100.00
55679;BME280;41573;51.446;-2.018;2023-05-25T07:53:54;101389.03;;;13.82;100.00
55679;BME280;41573;51.446;-2.018;2023-05-25T07:56:22;101385.13;;;13.88;100.00
55679;BME280;41573;51.446;-2.018;2023-05-25T07:58:48;101387.59;;;13.91;100.00
55679;BME280;41573;51.446;-2.018;2023-05-25T08:01:13;101385.31;;;13.99;100.00
55679;BME280;41573;51.446;-2.018;2023-05-25T08:03:39;101402.72;;;14.06;100.00
55679;BME280;41573;51.446;-2.018;2023-05-25T08:06:05;101408.56;;;14.13;100.00
55679;BME280;41573;51.446;-2.018;2023-05-25T08:08:30;101428.66;;;14.20;100.00
55679;BME280;41573;51.446;-2.018;2023-05-25T08:10:56;101434.56;;;14.25;100.00
55679;BME280;41573;51.446;-2.018;2023-05-25T08:13:21;101439.56;;;14.31;100.00
55679;BME280;41573;51.446;-2.018;2023-05-25T08:15:47;101449.03;;;14.37;100.00
55679;BME280;41573;51.446;-2.018;2023-05-25T08:18:14;101474.41;;;14.46;100.00
55679;BME280;41573;51.446;-2.018;2023-05-25T08:20:39;101472.97;;;14.55;100.00
55679;BME280;41573;51.446;-2.018;2023-05-25T08:23:05;101478.63;;;14.64;100.00
55679;BME280;41573;51.446;-2.018;2023-05-25T08:25:30;101482.53;;;14.73;100.00
55679;BME280;41573;51.446;-2.018;2023-05-25T08:27:56;101484.81;;;14.79;100.00
55679;BME280;41573;51.446;-2.018;2023-05-25T08:30:21;101499.75;;;14.83;100.00
55679;BME280;41573;51.446;-2.018;2023-05-25T08:32:47;101501.97;;;14.91;100.00
55679;BME280;41573;51.446;-2.018;2023-05-25T08:35:12;101510.41;;;14.99;100.00
55679;BME280;41573;51.446;-2.018;2023-05-25T08:37:42;101518.63;;;15.11;100.00
55679;BME280;41573;51.446;-2.018;2023-05-25T08:40:15;101515.22;;;15.22;100.00
55679;BME280;41573;51.446;-2.018;2023-05-25T08:42:42;101533.22;;;15.34;100.00
55679;BME280;41573;51.446;-2.018;2023-05-25T08:45:08;101536.69;;;15.49;100.00
55679;BME280;41573;51.446;-2.018;2023-05-25T08:47:39;101531.09;;;15.66;100.00
55679;BME280;41573;51.446;-2.018;2023-05-25T08:50:07;101545.34;;;15.81;100.00
55679;BME280;41573;51.446;-2.018;2023-05-25T08:52:34;101547.94;;;15.96;100.00
55679;BME280;41573;51.446;-2.018;2023-05-25T08:55:03;101571.63;;;16.03;100.00
55679;BME280;41573;51.446;-2.018;2023-05-25T09:00:02;101577.78;;;16.31;100.00
55679;BME280;41573;51.446;-2.018;2023-05-25T09:05:01;101583.28;;;16.68;100.00
55679;BME280;41573;51.446;-2.018;2023-05-25T09:07:30;101587.81;;;16.81;100.00
55679;BME280;41573;51.446;-2.018;2023-05-25T09:09:56;101574.03;;;16.98;100.00
55679;BME280;41573;51.446;-2.018;2023-05-25T09:12:23;101596.13;;;17.03;100.00
55679;BME280;41573;51.446;-2.018;2023-05-25T09:14:49;101601.91;;;17.10;100.00
55679;BME280;41573;51.446;-2.018;2023-05-25T09:17:15;101591.47;;;17.18;100.00
55679;BME280;41573;51.446;-2.018;2023-05-25T09:19:41;101579.81;;;17.18;100.00
55679;BME280;41573;51.446;-2.018;2023-05-25T09:22:07;101562.31;;;17.36;100.00
55679;BME280;41573;51.446;-2.018;2023-05-25T09:24:34;101576.31;;;17.42;100.00
55679;BME280;41573;51.446;-2.018;2023-05-25T09:27:01;101566.94;;;17.47;100.00
55679;BME280;41573;51.446;-2.018;2023-05-25T09:29:28;101575.56;;;17.39;100.00
55679;BME280;41573;51.446;-2.018;2023-05-25T09:31:53;101564.47;;;17.44;100.00
55679;BME280;41573;51.446;-2.018;2023-05-25T09:34:18;101569.22;;;17.40;100.00
55679;BME280;41573;51.446;-2.018;2023-05-25T09:36:44;101576.88;;;17.34;100.00
55679;BME280;41573;51.446;-2.018;2023-05-25T09:39:11;101564.47;;;17.44;100.00
55679;BME280;41573;51.446;-2.018;2023-05-25T09:41:38;101578.66;;;17.46;100.00
55679;BME280;41573;51.446;-2.018;2023-05-25T09:44:05;101583.44;;;17.43;100.00
55679;BME280;41573;51.446;-2.018;2023-05-25T09:46:30;101589.63;;;17.56;100.00
55679;BME280;41573;51.446;-2.018;2023-05-25T09:49:06;101594.97;;;17.69;100.00
55679;BME280;41573;51.446;-2.018;2023-05-25T09:51:33;101608.66;;;17.90;100.00
55679;BME280;41573;51.446;-2.018;2023-05-25T09:54:03;101592.97;;;18.08;100.00
55679;BME280;41573;51.446;-2.018;2023-05-25T09:56:30;101622.75;;;18.18;100.00
55679;BME280;41573;51.446;-2.018;2023-05-25T09:58:56;101633.94;;;18.24;100.00
55679;BME280;41573;51.446;-2.018;2023-05-25T10:01:23;101631.91;;;18.28;100.00
55679;BME280;41573;51.446;-2.018;2023-05-25T10:03:48;101640.59;;;18.32;100.00
55679;BME280;41573;51.446;-2.018;2023-05-25T10:06:15;101648.97;;;18.40;100.00
55679;BME280;41573;51.446;-2.018;2023-05-25T10:08:42;101641.03;;;18.50;100.00
55679;BME280;41573;51.446;-2.018;2023-05-25T10:11:09;101657.19;;;18.38;100.00
55679;BME280;41573;51.446;-2.018;2023-05-25T10:13:36;101645.34;;;18.52;100.00
55679;BME280;41573;51.446;-2.018;2023-05-25T10:16:02;101653.44;;;18.52;100.00
55679;BME280;41573;51.446;-2.018;2023-05-25T10:18:31;101661.41;;;18.54;100.00
55679;BME280;41573;51.446;-2.018;2023-05-25T10:21:02;101646.69;;;18.58;100.00
55679;BME280;41573;51.446;-2.018;2023-05-25T10:23:34;101647.44;;;18.71;100.00
55679;BME280;41573;51.446;-2.018;2023-05-25T10:26:02;101662.31;;;18.77;100.00
55679;BME280;41573;51.446;-2.018;2023-05-25T10:28:36;101657.94;;;18.87;100.00
55679;BME280;41573;51.446;-2.018;2023-05-25T10:31:04;101665.44;;;18.95;100.00
55679;BME280;41573;51.446;-2.018;2023-05-25T10:33:31;101662.75;;;19.06;100.00
55679;BME280;41573;51.446;-2.018;2023-05-25T10:35:57;101676.13;;;19.19;100.00
55679;BME280;41573;51.446;-2.018;2023-05-25T10:38:24;101676.25;;;19.29;100.00
55679;BME280;41573;51.446;-2.018;2023-05-25T10:40:52;101687.78;;;19.20;100.00
55679;BME280;41573;51.446;-2.018;2023-05-25T10:43:19;101681.53;;;19.19;100.00
55679;BME280;41573;51.446;-2.018;2023-05-25T10:45:46;101670.34;;;19.12;100.00
55679;BME280;41573;51.446;-2.018;2023-05-25T10:48:13;101680.44;;;19.22;100.00
55679;BME280;41573;51.446;-2.018;2023-05-25T10:50:39;101673.06;;;19.24;100.00
55679;BME280;41573;51.446;-2.018;2023-05-25T10:53:07;101632.91;;;19.42;100.00
55679;BME280;41573;51.446;-2.018;2023-05-25T10:55:42;101661.53;;;19.44;100.00
55679;BME280;41573;51.446;-2.018;2023-05-25T10:58:14;101663.34;;;19.44;100.00
55679;BME280;41573;51.446;-2.018;2023-05-25T11:00:41;101670.22;;;19.59;100.00
55679;BME280;41573;51.446;-2.018;2023-05-25T11:03:07;101667.63;;;19.58;100.00
55679;BME280;41573;51.446;-2.018;2023-05-25T11:05:37;101680.75;;;19.62;100.00
55679;BME280;41573;51.446;-2.018;2023-05-25T11:08:07;101667.28;;;19.51;100.00
55679;BME280;41573;51.446;-2.018;2023-05-25T11:16:16;101653.88;;;19.50;100.00
55679;BME280;41573;51.446;-2.018;2023-05-25T11:18:55;101665.78;;;19.47;100.00
55679;BME280;41573;51.446;-2.018;2023-05-25T11:26:26;101655.59;;;19.62;100.00
55679;BME280;41573;51.446;-2.018;2023-05-25T11:28:53;101643.31;;;19.69;100.00
55679;BME280;41573;51.446;-2.018;2023-05-25T11:31:26;101633.06;;;19.95;100.00
55679;BME280;41573;51.446;-2.018;2023-05-25T11:34:02;101640.97;;;19.87;100.00
55679;BME280;41573;51.446;-2.018;2023-05-25T11:36:29;101652.97;;;19.94;100.00
55679;BME280;41573;51.446;-2.018;2023-05-25T11:39:00;101656.50;;;20.06;100.00
55679;BME280;41573;51.446;-2.018;2023-05-25T11:41:26;101655.25;;;20.10;100.00
55679;BME280;41573;51.446;-2.018;2023-05-25T11:43:53;101651.03;;;20.18;100.00
55679;BME280;41573;51.446;-2.018;2023-05-25T11:46:20;101675.59;;;20.26;100.00
55679;BME280;41573;51.446;-2.018;2023-05-25T11:48:53;101679.25;;;20.36;100.00
55679;BME280;41573;51.446;-2.018;2023-05-25T11:51:21;101675.28;;;20.40;100.00
55679;BME280;41573;51.446;-2.018;2023-05-25T11:53:47;101662.28;;;20.34;100.00
55679;BME280;41573;51.446;-2.018;2023-05-25T11:56:13;101665.72;;;20.36;100.00
55679;BME280;41573;51.446;-2.018;2023-05-25T11:58:39;101678.00;;;20.40;100.00
55679;BME280;41573;51.446;-2.018;2023-05-25T12:01:19;101659.59;;;20.34;100.00
55679;BME280;41573;51.446;-2.018;2023-05-25T12:03:50;101667.75;;;20.23;100.00
55679;BME280;41573;51.446;-2.018;2023-05-25T12:06:29;101664.38;;;20.30;100.00
55679;BME280;41573;51.446;-2.018;2023-05-25T12:08:56;101652.19;;;20.36;100.00
55679;BME280;41573;51.446;-2.018;2023-05-25T12:11:32;101651.66;;;20.42;100.00
55679;BME280;41573;51.446;-2.018;2023-05-25T12:13:59;101666.63;;;20.46;100.00
55679;BME280;41573;51.446;-2.018;2023-05-25T12:16:25;101661.63;;;20.42;100.00
55679;BME280;41573;51.446;-2.018;2023-05-25T12:18:51;101669.41;;;20.35;100.00
55679;BME280;41573;51.446;-2.018;2023-05-25T12:21:18;101668.06;;;20.29;100.00
55679;BME280;41573;51.446;-2.018;2023-05-25T12:23:45;101666.38;;;20.28;100.00
55679;BME280;41573;51.446;-2.018;2023-05-25T12:26:15;101666.56;;;20.15;100.00
55679;BME280;41573;51.446;-2.018;2023-05-25T12:29:02;101673.25;;;20.00;100.00
55679;BME280;41573;51.446;-2.018;2023-05-25T12:31:30;101671.34;;;20.12;100.00
55679;BME280;41573;51.446;-2.018;2023-05-25T12:34:10;101665.06;;;20.23;100.00
55679;BME280;41573;51.446;-2.018;2023-05-25T12:36:50;101679.47;;;20.44;100.00
55679;BME280;41573;51.446;-2.018;2023-05-25T12:39:31;101668.44;;;20.57;100.00
55679;BME280;41573;51.446;-2.018;2023-05-25T12:41:58;101670.44;;;20.76;100.00
55679;BME280;41573;51.446;-2.018;2023-05-25T12:44:25;101680.75;;;20.82;100.00
55679;BME280;41573;51.446;-2.018;2023-05-25T12:46:55;101685.63;;;20.89;100.00
55679;BME280;41573;51.446;-2.018;2023-05-25T12:49:31;101691.66;;;20.92;100.00
55679;BME280;41573;51.446;-2.018;2023-05-25T12:51:58;101691.25;;;20.97;100.00
55679;BME280;41573;51.446;-2.018;2023-05-25T12:54:42;101694.53;;;21.00;100.00
55679;BME280;41573;51.446;-2.018;2023-05-25T12:57:13;101699.22;;;20.98;100.00
55679;BME280;41573;51.446;-2.018;2023-05-25T12:59:41;101703.25;;;20.83;100.00
55679;BME280;41573;51.446;-2.018;2023-05-25T13:02:07;101703.06;;;20.96;100.00
55679;BME280;41573;51.446;-2.018;2023-05-25T13:04:34;101701.34;;;20.95;100.00
55679;BME280;41573;51.446;-2.018;2023-05-25T13:07:00;101700.00;;;21.10;100.00
55679;BME280;41573;51.446;-2.018;2023-05-25T13:09:25;101696.78;;;21.16;100.00
55679;BME280;41573;51.446;-2.018;2023-05-25T13:11:55;101701.31;;;21.16;100.00
55679;BME280;41573;51.446;-2.018;2023-05-25T13:14:22;101700.59;;;21.14;100.00
55679;BME280;41573;51.446;-2.018;2023-05-25T13:16:48;101699.47;;;21.16;100.00
55679;BME280;41573;51.446;-2.018;2023-05-25T13:19:14;101701.31;;;21.16;100.00
55679;BME280;41573;51.446;-2.018;2023-05-25T13:21:39;101698.03;;;21.12;100.00
55679;BME280;41573;51.446;-2.018;2023-05-25T13:24:05;101696.25;;;21.01;100.00
55679;BME280;41573;51.446;-2.018;2023-05-25T13:26:30;101687.63;;;20.87;100.00
55679;BME280;41573;51.446;-2.018;2023-05-25T13:28:56;101685.16;;;20.62;100.00
55679;BME280;41573;51.446;-2.018;2023-05-25T13:31:21;101687.72;;;20.64;100.00
55679;BME280;41573;51.446;-2.018;2023-05-25T13:33:47;101682.06;;;20.67;100.00
55679;BME280;41573;51.446;-2.018;2023-05-25T13:36:12;101686.84;;;20.63;100.00
55679;BME280;41573;51.446;-2.018;2023-05-25T13:38:39;101676.13;;;20.73;100.00
55679;BME280;41573;51.446;-2.018;2023-05-25T13:41:05;101679.16;;;20.80;100.00
55679;BME280;41573;51.446;-2.018;2023-05-25T13:43:30;101690.50;;;20.95;100.00
55679;BME280;41573;51.446;-2.018;2023-05-25T13:45:56;101688.59;;;21.07;100.00
55679;BME280;41573;51.446;-2.018;2023-05-25T13:48:23;101690.28;;;21.60;100.00
55679;BME280;41573;51.446;-2.018;2023-05-25T13:50:48;101690.81;;;22.24;100.00
55679;BME280;41573;51.446;-2.018;2023-05-25T13:53:14;101682.38;;;22.27;100.00
55679;BME280;41573;51.446;-2.018;2023-05-25T13:55:39;101688.81;;;22.06;100.00
55679;BME280;41573;51.446;-2.018;2023-05-25T13:58:05;101694.63;;;21.92;100.00
55679;BME280;41573;51.446;-2.018;2023-05-25T14:00:30;101701.72;;;21.73;100.00
55679;BME280;41573;51.446;-2.018;2023-05-25T14:02:56;101690.41;;;21.58;100.00
55679;BME280;41573;51.446;-2.018;2023-05-25T14:05:21;101700.38;;;21.27;100.00
55679;BME280;41573;51.446;-2.018;2023-05-25T14:07:47;101695.06;;;21.15;100.00
55679;BME280;41573;51.446;-2.018;2023-05-25T14:10:12;101703.59;;;21.11;100.00
55679;BME280;41573;51.446;-2.018;2023-05-25T14:12:38;101692.47;;;21.14;100.00
55679;BME280;41573;51.446;-2.018;2023-05-25T14:15:05;101688.88;;;21.13;100.00
55679;BME280;41573;51.446;-2.018;2023-05-25T14:17:30;101687.91;;;21.14;100.00
55679;BME280;41573;51.446;-2.018;2023-05-25T14:19:55;101691.31;;;21.07;100.00
55679;BME280;41573;51.446;-2.018;2023-05-25T14:22:22;101694.59;;;21.10;100.00
55679;BME280;41573;51.446;-2.018;2023-05-25T14:24:48;101701.59;;;21.13;100.00
55679;BME280;41573;51.446;-2.018;2023-05-25T14:27:13;101687.19;;;21.12;100.00
55679;BME280;41573;51.446;-2.018;2023-05-25T14:29:40;101697.44;;;21.09;100.00
55679;BME280;41573;51.446;-2.018;2023-05-25T14:32:05;101697.91;;;20.93;100.00
55679;BME280;41573;51.446;-2.018;2023-05-25T14:34:31;101705.84;;;20.84;100.00
55679;BME280;41573;51.446;-2.018;2023-05-25T14:36:56;101705.94;;;20.62;100.00
55679;BME280;41573;51.446;-2.018;2023-05-25T14:39:21;101710.91;;;20.57;100.00
55679;BME280;41573;51.446;-2.018;2023-05-25T14:41:47;101697.38;;;20.57;100.00
55679;BME280;41573;51.446;-2.018;2023-05-25T14:44:12;101688.44;;;20.66;100.00
55679;BME280;41573;51.446;-2.018;2023-05-25T14:46:38;101700.25;;;20.65;100.00
55679;BME280;41573;51.446;-2.018;2023-05-25T14:49:03;101696.56;;;20.66;100.00
55679;BME280;41573;51.446;-2.018;2023-05-25T14:51:28;101692.91;;;20.67;100.00
55679;BME280;41573;51.446;-2.018;2023-05-25T14:53:54;101690.91;;;20.69;100.00
55679;BME280;41573;51.446;-2.018;2023-05-25T14:56:19;101691.38;;;20.74;100.00
55679;BME280;41573;51.446;-2.018;2023-05-25T14:58:48;101699.22;;;20.77;100.00
55679;BME280;41573;51.446;-2.018;2023-05-25T15:01:14;101696.81;;;20.74;100.00
55679;BME280;41573;51.446;-2.018;2023-05-25T15:03:39;101692.56;;;20.81;100.00
55679;BME280;41573;51.446;-2.018;2023-05-25T15:06:05;101705.13;;;20.82;100.00
55679;BME280;41573;51.446;-2.018;2023-05-25T15:08:30;101687.63;;;20.87;100.00
55679;BME280;41573;51.446;-2.018;2023-05-25T15:10:55;101689.19;;;20.89;100.00
55679;BME280;41573;51.446;-2.018;2023-05-25T15:13:21;101690.34;;;20.87;100.00
55679;BME280;41573;51.446;-2.018;2023-05-25T15:15:49;101697.00;;;20.82;100.00
55679;BME280;41573;51.446;-2.018;2023-05-25T15:18:19;101700.34;;;20.75;100.00
55679;BME280;41573;51.446;-2.018;2023-05-25T15:20:44;101697.91;;;20.72;100.00
55679;BME280;41573;51.446;-2.018;2023-05-25T15:23:09;101704.78;;;20.76;100.00
55679;BME280;41573;51.446;-2.018;2023-05-25T15:25:35;101700.97;;;20.78;100.00
55679;BME280;41573;51.446;-2.018;2023-05-25T15:28:00;101705.91;;;20.73;100.00
55679;BME280;41573;51.446;-2.018;2023-05-25T15:30:26;101707.16;;;20.69;100.00
55679;BME280;41573;51.446;-2.018;2023-05-25T15:32:51;101707.22;;;20.79;100.00
55679;BME280;41573;51.446;-2.018;2023-05-25T15:35:17;101703.13;;;20.84;100.00
55679;BME280;41573;51.446;-2.018;2023-05-25T15:37:42;101706.94;;;20.82;100.00
55679;BME280;41573;51.446;-2.018;2023-05-25T15:40:08;101699.31;;;20.87;100.00
55679;BME280;41573;51.446;-2.018;2023-05-25T15:42:34;101703.13;;;20.84;100.00
55679;BME280;41573;51.446;-2.018;2023-05-25T15:44:59;101715.06;;;20.82;100.00
55679;BME280;41573;51.446;-2.018;2023-05-25T15:47:25;101719.91;;;20.78;100.00
55679;BME280;41573;51.446;-2.018;2023-05-25T15:49:50;101709.50;;;20.74;100.00